Time;durP1;ratioP1;P1;durP2;ratioP2;P2;SDS_P1;SDS_P2;PMS_P1;PMS_P2;Temp;Humidity;BMP_temperature;BMP_pressure;BME280_temperature;BME280_humidity;BME280_pressure;Samples;Min_cycle;Max_cycle;Signal;HPM_P1;HPM_P2
2021/12/09 00:01:47;;;;;;;;;;;;;;;18.91;60.52;100473.81;5075091;28;1831;-42
2021/12/09 00:04:16;;;;;;;;;;;;;;;18.93;60.99;100485.22;5075442;28;1684;-42
2021/12/09 00:06:54;;;;;;;;;;;;;;;18.88;60.48;100488.34;5073121;28;2155;-43
2021/12/09 00:09:24;;;;;;;;;;;;;;;18.81;60.37;100490.72;5075109;28;1735;-42
2021/12/09 00:11:51;;;;;;;;;;;;;;;18.73;60.77;100493.22;5075648;28;1935;-42
2021/12/09 00:14:21;;;;;;;;;;;;;;;18.90;60.49;100505.13;5075108;28;2027;-42
2021/12/09 00:16:48;;;;;;;;;;;;;;;18.94;59.98;100506.53;5075109;28;1609;-42
2021/12/09 00:19:25;;;;;;;;;;;;;;;18.88;60.25;100512.44;5074843;28;1744;-42
2021/12/09 00:21:53;;;;;;;;;;;;;;;18.78;60.18;100511.53;5075174;28;1622;-42
2021/12/09 00:24:20;;;;;;;;;;;;;;;18.67;60.11;100517.88;5075404;28;2048;-42
2021/12/09 00:26:49;;;;;;;;;;;;;;;18.80;59.94;100509.59;5075979;28;1902;-42
2021/12/09 00:29:18;;;;;;;;;;;;;;;18.81;59.79;100511.31;5074817;28;1805;-42
2021/12/09 00:31:47;;;;;;;;;;;;;;;18.76;60.22;100511.72;5074659;28;2108;-42
2021/12/09 00:34:31;;;;;;;;;;;;;;;18.78;60.64;100522.25;5074616;28;1756;-42
2021/12/09 00:37:10;;;;;;;;;;;;;;;18.76;59.79;100529.59;5074794;28;1841;-42
2021/12/09 00:39:40;;;;;;;;;;;;;;;18.72;59.94;100522.81;5074757;28;1583;-42
2021/12/09 00:42:09;;;;;;;;;;;;;;;18.64;60.28;100532.41;5075027;28;1675;-42
2021/12/09 00:44:39;;;;;;;;;;;;;;;18.86;59.65;100534.03;5074186;28;1914;-42
2021/12/09 00:47:06;;;;;;;;;;;;;;;18.90;59.25;100536.41;5073922;28;1759;-42
2021/12/09 00:49:35;;;;;;;;;;;;;;;18.77;59.75;100537.50;5074831;28;1609;-42
2021/12/09 00:52:01;;;;;;;;;;;;;;;18.78;59.41;100530.28;5070835;28;1774;-42
2021/12/09 00:54:28;;;;;;;;;;;;;;;18.85;59.57;100539.50;5073315;28;2002;-42
2021/12/09 00:56:55;;;;;;;;;;;;;;;18.06;62.15;100542.94;5075147;28;1946;-42
2021/12/09 00:59:29;;;;;;;;;;;;;;;17.67;62.77;100548.09;5074092;28;1727;-42
2021/12/09 01:01:57;;;;;;;;;;;;;;;17.48;63.12;100538.13;5073287;28;1999;-42
2021/12/09 01:04:27;;;;;;;;;;;;;;;17.38;61.68;100556.75;5073735;28;1796;-42
2021/12/09 01:06:56;;;;;;;;;;;;;;;17.18;62.47;100541.56;5073905;28;1902;-42
2021/12/09 01:09:37;;;;;;;;;;;;;;;17.20;62.74;100547.63;5073000;28;1590;-42
2021/12/09 01:12:04;;;;;;;;;;;;;;;17.07;63.37;100548.66;5075024;28;1015;-42
2021/12/09 01:14:36;;;;;;;;;;;;;;;17.15;63.37;100547.16;5074666;28;2047;-42
2021/12/09 01:17:13;;;;;;;;;;;;;;;17.12;63.51;100555.44;5073304;28;1804;-42
2021/12/09 01:19:41;;;;;;;;;;;;;;;16.98;64.19;100554.75;5073598;28;1899;-42
2021/12/09 01:22:09;;;;;;;;;;;;;;;16.92;64.55;100549.09;5073806;28;1552;-42
2021/12/09 01:24:37;;;;;;;;;;;;;;;16.87;63.98;100552.13;5073678;28;1720;-42
2021/12/09 01:27:05;;;;;;;;;;;;;;;16.91;64.27;100561.59;5074330;28;1968;-42
2021/12/09 01:29:40;;;;;;;;;;;;;;;17.28;62.79;100563.88;5071549;28;1663;-42
2021/12/09 01:32:10;;;;;;;;;;;;;;;17.93;61.75;100551.22;5072860;28;1752;-42
2021/12/09 01:34:48;;;;;;;;;;;;;;;18.53;59.26;100545.09;5073720;28;2013;-42
2021/12/09 01:37:17;;;;;;;;;;;;;;;18.46;59.67;100542.97;5072159;28;1781;-42
2021/12/09 01:39:44;;;;;;;;;;;;;;;18.20;60.79;100555.94;5073771;28;1936;-42
2021/12/09 01:42:12;;;;;;;;;;;;;;;18.46;59.92;100539.41;5073835;28;1960;-43
2021/12/09 01:44:44;;;;;;;;;;;;;;;18.63;59.23;100537.91;5072842;28;1574;-42
2021/12/09 01:47:10;;;;;;;;;;;;;;;18.72;58.81;100525.50;5073288;28;1901;-42
2021/12/09 01:49:38;;;;;;;;;;;;;;;18.85;59.06;100528.78;5073189;28;1828;-42
2021/12/09 01:52:05;;;;;;;;;;;;;;;18.71;59.04;100553.28;5073544;28;1821;-42
2021/12/09 01:54:34;;;;;;;;;;;;;;;18.64;58.58;100537.78;5073291;28;1760;-42
2021/12/09 01:57:04;;;;;;;;;;;;;;;18.59;59.12;100540.00;5073829;28;1083;-42
2021/12/09 01:59:33;;;;;;;;;;;;;;;18.65;58.83;100539.44;5069308;28;2102;-42
2021/12/09 02:02:05;;;;;;;;;;;;;;;18.59;59.48;100534.66;5072297;28;1520;-42
2021/12/09 02:04:32;;;;;;;;;;;;;;;18.61;59.02;100543.38;5071708;28;1843;-42
2021/12/09 02:06:58;;;;;;;;;;;;;;;18.57;58.89;100546.50;5068814;28;1906;-42
2021/12/09 02:09:27;;;;;;;;;;;;;;;18.58;59.34;100535.66;5072892;28;2013;-42
2021/12/09 02:11:56;;;;;;;;;;;;;;;18.72;58.67;100531.72;5057287;28;1070;-42
2021/12/09 02:14:23;;;;;;;;;;;;;;;18.59;58.88;100547.19;5069147;28;1645;-42
2021/12/09 02:16:53;;;;;;;;;;;;;;;18.77;58.30;100540.16;5070201;28;1954;-42
2021/12/09 02:19:23;;;;;;;;;;;;;;;18.67;58.54;100547.34;5065176;28;1807;-42
2021/12/09 02:21:56;;;;;;;;;;;;;;;18.67;58.08;100548.19;5072704;28;1649;-42
2021/12/09 02:24:45;;;;;;;;;;;;;;;18.72;58.46;100560.31;5072977;28;1777;-42
2021/12/09 02:27:12;;;;;;;;;;;;;;;18.61;58.73;100553.25;5072551;28;1902;-42
2021/12/09 02:29:41;;;;;;;;;;;;;;;18.62;58.00;100571.88;5072314;28;1426;-42
2021/12/09 02:32:10;;;;;;;;;;;;;;;18.51;59.10;100542.53;5073035;28;1937;-42
2021/12/09 02:34:39;;;;;;;;;;;;;;;18.58;58.06;100551.72;5072491;28;1900;-42
2021/12/09 02:37:13;;;;;;;;;;;;;;;18.65;57.83;100552.84;5072742;28;2061;-42
2021/12/09 02:39:42;;;;;;;;;;;;;;;18.66;57.82;100559.91;5072447;28;1977;-42
2021/12/09 02:42:09;;;;;;;;;;;;;;;18.63;58.56;100552.13;5072959;28;1800;-42
2021/12/09 02:44:38;;;;;;;;;;;;;;;18.67;58.21;100558.91;5072793;28;1803;-42
2021/12/09 02:47:05;;;;;;;;;;;;;;;18.51;58.76;100563.13;5072617;28;1906;-42
2021/12/09 02:49:32;;;;;;;;;;;;;;;18.61;57.68;100570.16;5076899;28;1828;-42
2021/12/09 02:52:03;;;;;;;;;;;;;;;18.72;58.48;100565.69;5072510;28;1785;-42
2021/12/09 02:54:36;;;;;;;;;;;;;;;18.75;58.57;100576.97;5077137;28;1543;-42
2021/12/09 02:57:05;;;;;;;;;;;;;;;18.63;58.12;100578.91;5077608;28;1005;-42
2021/12/09 02:59:32;;;;;;;;;;;;;;;18.72;57.50;100582.63;5074664;28;1707;-42
2021/12/09 03:02:13;;;;;;;;;;;;;;;18.73;58.01;100562.03;5159328;22;3464;-42
2021/12/09 03:04:44;;;;;;;;;;;;;;;18.66;58.04;100577.78;5035707;28;1659;-42
2021/12/09 03:07:24;;;;;;;;;;;;;;;18.59;57.80;100565.94;5046461;28;1906;-42
2021/12/09 03:09:59;;;;;;;;;;;;;;;18.68;57.98;100559.75;5053854;28;1623;-42
2021/12/09 03:12:28;;;;;;;;;;;;;;;18.73;57.62;100572.75;5053032;28;1760;-42
2021/12/09 03:14:58;;;;;;;;;;;;;;;18.71;57.38;100590.78;5034418;28;1703;-42
2021/12/09 03:17:25;;;;;;;;;;;;;;;18.72;57.56;100566.53;5050852;28;1007;-42
2021/12/09 03:19:53;;;;;;;;;;;;;;;18.56;57.87;100568.88;5043994;28;1684;-42
2021/12/09 03:25:04;;;;;;;;;;;;;;;17.64;61.12;100562.56;5049575;28;2334;-42
2021/12/09 03:27:31;;;;;;;;;;;;;;;17.66;61.35;100573.13;5051986;28;1964;-42
2021/12/09 03:30:01;;;;;;;;;;;;;;;17.60;61.73;100570.97;5039719;28;1778;-42
2021/12/09 03:32:27;;;;;;;;;;;;;;;17.56;61.51;100558.84;5051275;28;1007;-42
2021/12/09 03:34:56;;;;;;;;;;;;;;;17.58;61.78;100564.91;5043270;28;1080;-42
2021/12/09 03:37:24;;;;;;;;;;;;;;;17.57;61.87;100568.59;5038229;28;1805;-42
2021/12/09 03:40:01;;;;;;;;;;;;;;;17.55;62.03;100557.16;5045907;28;1641;-42
2021/12/09 03:42:32;;;;;;;;;;;;;;;17.54;62.33;100558.13;5020791;28;1678;-42
2021/12/09 03:45:16;;;;;;;;;;;;;;;17.57;62.24;100563.25;5053416;28;1694;-42
2021/12/09 03:47:44;;;;;;;;;;;;;;;17.55;62.42;100536.63;5050702;28;1978;-42
2021/12/09 03:50:15;;;;;;;;;;;;;;;17.50;62.62;100552.19;5016301;28;2123;-42
2021/12/09 03:52:42;;;;;;;;;;;;;;;17.53;62.38;100546.59;5036995;28;1070;-42
2021/12/09 03:55:10;;;;;;;;;;;;;;;17.60;62.21;100550.44;5042857;28;1880;-43
2021/12/09 03:57:49;;;;;;;;;;;;;;;17.52;62.57;100549.41;5037392;28;1684;-42
2021/12/09 04:00:19;;;;;;;;;;;;;;;17.50;62.55;100531.66;5018517;28;1733;-43
2021/12/09 04:02:46;;;;;;;;;;;;;;;17.50;62.70;100542.34;5016919;28;1551;-42
2021/12/09 04:05:15;;;;;;;;;;;;;;;17.48;62.68;100538.13;5040033;28;1757;-43
2021/12/09 04:07:43;;;;;;;;;;;;;;;17.44;62.81;100537.53;5036294;28;1902;-42
2021/12/09 04:10:10;;;;;;;;;;;;;;;17.43;62.84;100529.66;5034164;28;1606;-42
2021/12/09 04:12:53;;;;;;;;;;;;;;;17.41;63.12;100543.16;5034417;28;1762;-42
2021/12/09 04:15:27;;;;;;;;;;;;;;;17.42;62.95;100531.47;5021559;28;1925;-42
2021/12/09 04:17:55;;;;;;;;;;;;;;;17.45;62.96;100522.34;5020351;28;1505;-43
2021/12/09 04:20:28;;;;;;;;;;;;;;;17.45;63.07;100538.41;5034392;28;2149;-42
2021/12/09 04:22:56;;;;;;;;;;;;;;;17.41;63.25;100523.59;5041271;28;1554;-42
2021/12/09 04:25:28;;;;;;;;;;;;;;;17.39;63.14;100544.25;5035226;28;1520;-42
2021/12/09 04:27:57;;;;;;;;;;;;;;;17.17;64.06;100555.91;5036666;28;1965;-42
2021/12/09 04:30:29;;;;;;;;;;;;;;;17.01;63.50;100548.31;5049320;28;1516;-42
2021/12/09 04:33:06;;;;;;;;;;;;;;;16.98;63.81;100562.78;5036846;28;2057;-42
2021/12/09 04:35:33;;;;;;;;;;;;;;;16.81;63.40;100542.81;5020224;28;1716;-42
2021/12/09 04:38:04;;;;;;;;;;;;;;;16.84;63.57;100560.41;5043455;28;1543;-42
2021/12/09 04:40:39;;;;;;;;;;;;;;;16.97;64.00;100568.25;5037516;28;1008;-42
2021/12/09 04:43:07;;;;;;;;;;;;;;;17.24;63.23;100549.06;5040199;28;2094;-42
2021/12/09 04:45:40;;;;;;;;;;;;;;;17.31;63.36;100555.59;5041249;28;1770;-43
2021/12/09 04:48:11;;;;;;;;;;;;;;;17.58;62.84;100556.91;5034246;28;1983;-42
2021/12/09 04:50:38;;;;;;;;;;;;;;;17.73;62.41;100552.06;5044087;28;1850;-43
2021/12/09 04:53:06;;;;;;;;;;;;;;;17.82;62.32;100554.78;5048580;28;1715;-42
2021/12/09 04:55:33;;;;;;;;;;;;;;;17.44;63.30;100548.22;5035794;28;1253;-43
2021/12/09 04:57:59;;;;;;;;;;;;;;;17.21;63.97;100562.69;5034494;28;1837;-42
2021/12/09 05:00:48;;;;;;;;;;;;;;;17.17;64.03;100558.56;5034609;28;1653;-42
2021/12/09 05:03:20;;;;;;;;;;;;;;;17.28;64.57;100566.53;5051298;28;1722;-43
2021/12/09 05:06:01;;;;;;;;;;;;;;;17.29;64.10;100570.91;5044790;28;1526;-43
2021/12/09 05:08:37;;;;;;;;;;;;;;;17.23;64.02;100560.72;5034648;28;1576;-42
2021/12/09 05:11:13;;;;;;;;;;;;;;;17.22;64.70;100569.72;5032916;28;1060;-42
2021/12/09 05:13:41;;;;;;;;;;;;;;;17.24;64.15;100567.78;5045046;28;1862;-42
2021/12/09 05:16:11;;;;;;;;;;;;;;;17.25;63.71;100582.84;5051273;28;1541;-43
2021/12/09 05:18:42;;;;;;;;;;;;;;;17.20;64.44;100579.69;5049352;28;1681;-42
2021/12/09 05:21:22;;;;;;;;;;;;;;;17.15;64.24;100587.25;5051307;28;1691;-42
2021/12/09 05:23:49;;;;;;;;;;;;;;;17.10;64.51;100569.78;5052400;28;1023;-42
2021/12/09 05:26:19;;;;;;;;;;;;;;;17.15;64.43;100568.53;5026816;28;1991;-43
2021/12/09 05:28:53;;;;;;;;;;;;;;;17.17;64.63;100579.94;5035057;28;1721;-42
2021/12/09 05:34:07;;;;;;;;;;;;;;;17.14;64.81;100582.88;5034187;28;1658;-42
2021/12/09 05:36:36;;;;;;;;;;;;;;;17.09;64.33;100575.25;5018433;28;1841;-42
2021/12/09 05:39:03;;;;;;;;;;;;;;;17.15;64.70;100589.91;5034537;28;1857;-42
2021/12/09 05:41:33;;;;;;;;;;;;;;;17.08;64.60;100579.72;5047778;28;1608;-42
2021/12/09 05:44:04;;;;;;;;;;;;;;;17.14;64.47;100593.56;5040545;28;1523;-42
2021/12/09 05:46:46;;;;;;;;;;;;;;;17.10;64.38;100591.13;5043344;28;1899;-42
2021/12/09 05:49:19;;;;;;;;;;;;;;;17.16;64.67;100613.00;5037396;28;1780;-42
2021/12/09 05:51:47;;;;;;;;;;;;;;;17.15;64.57;100611.28;5045305;28;1476;-42
2021/12/09 05:54:15;;;;;;;;;;;;;;;17.17;64.53;100620.91;5043603;28;1437;-42
2021/12/09 05:56:44;;;;;;;;;;;;;;;17.13;64.64;100614.09;5050067;28;1863;-43
2021/12/09 05:59:22;;;;;;;;;;;;;;;17.10;64.55;100622.38;5040438;28;1515;-43
2021/12/09 06:01:57;;;;;;;;;;;;;;;17.07;64.49;100604.78;5050565;28;1687;-42
2021/12/09 06:04:31;;;;;;;;;;;;;;;17.08;64.98;100617.13;5028465;28;1843;-42
2021/12/09 06:06:58;;;;;;;;;;;;;;;17.28;64.52;100611.97;5032102;28;1913;-42
2021/12/09 06:09:33;;;;;;;;;;;;;;;17.34;63.76;100622.16;4975741;28;10891;-42
2021/12/09 06:11:59;;;;;;;;;;;;;;;17.45;63.53;100627.44;5021341;28;1572;-42
2021/12/09 06:14:47;;;;;;;;;;;;;;;17.48;63.66;100624.50;5029791;28;1534;-42
2021/12/09 06:17:14;;;;;;;;;;;;;;;17.59;63.01;100633.47;5024408;28;1354;-42
2021/12/09 06:19:49;;;;;;;;;;;;;;;17.59;62.95;100625.44;5025200;28;1757;-42
2021/12/09 06:22:15;;;;;;;;;;;;;;;17.64;62.65;100633.91;5030978;28;1513;-42
2021/12/09 06:24:45;;;;;;;;;;;;;;;17.64;62.89;100628.56;5027869;28;1554;-42
2021/12/09 06:27:11;;;;;;;;;;;;;;;17.73;62.67;100643.84;5025750;28;1902;-43
2021/12/09 06:29:39;;;;;;;;;;;;;;;17.89;62.16;100640.75;5026139;28;1095;-43
2021/12/09 06:32:07;;;;;;;;;;;;;;;17.85;62.52;100642.00;5032168;28;1519;-42
2021/12/09 06:34:38;;;;;;;;;;;;;;;17.88;62.45;100642.53;5043163;28;1683;-42
2021/12/09 06:37:08;;;;;;;;;;;;;;;17.87;63.38;100645.38;5025829;28;2004;-43
2021/12/09 06:39:39;;;;;;;;;;;;;;;17.58;64.10;100637.94;5031537;28;1599;-42
2021/12/09 06:42:07;;;;;;;;;;;;;;;17.19;65.56;100634.97;5020409;28;1461;-42
2021/12/09 06:44:43;;;;;;;;;;;;;;;16.95;66.00;100642.31;5038351;28;1475;-42
2021/12/09 06:47:15;;;;;;;;;;;;;;;16.92;65.21;100627.41;5036941;28;1902;-42
2021/12/09 06:49:46;;;;;;;;;;;;;;;16.74;65.13;100615.50;5025851;28;1711;-42
2021/12/09 06:52:18;;;;;;;;;;;;;;;16.86;66.66;100631.41;5020401;28;1904;-43
2021/12/09 06:54:46;;;;;;;;;;;;;;;17.12;66.24;100632.94;5021458;28;1828;-43
2021/12/09 06:57:16;;;;;;;;;;;;;;;17.55;65.96;100618.63;5038689;28;1808;-43
2021/12/09 06:59:43;;;;;;;;;;;;;;;17.80;65.42;100596.00;5044197;28;1544;-43
2021/12/09 07:02:10;;;;;;;;;;;;;;;18.13;64.85;100612.84;5039528;28;1993;-43
2021/12/09 07:04:38;;;;;;;;;;;;;;;18.27;64.30;100618.69;5049793;28;1808;-43
2021/12/09 07:07:07;;;;;;;;;;;;;;;18.46;63.76;100609.03;5044555;28;2052;-45
2021/12/09 07:09:38;;;;;;;;;;;;;;;18.60;63.94;100586.38;5031465;28;1583;-42
2021/12/09 07:12:05;;;;;;;;;;;;;;;18.79;62.76;100591.81;5039587;28;1577;-41
2021/12/09 07:14:31;;;;;;;;;;;;;;;18.79;62.52;100599.84;5041241;28;1921;-42
2021/12/09 07:16:59;;;;;;;;;;;;;;;19.03;61.69;100596.78;5043190;28;1862;-43
2021/12/09 07:19:28;;;;;;;;;;;;;;;19.19;61.92;100606.09;5045441;28;1741;-43
2021/12/09 07:21:57;;;;;;;;;;;;;;;19.25;61.31;100589.44;5047990;28;1654;-43
2021/12/09 07:24:25;;;;;;;;;;;;;;;19.04;60.86;100603.84;5032006;28;2030;-43
2021/12/09 07:27:02;;;;;;;;;;;;;;;18.35;63.18;100595.75;5039659;28;1971;-43
2021/12/09 07:29:32;;;;;;;;;;;;;;;18.11;64.32;100606.78;5038585;28;1629;-43
2021/12/09 07:32:01;;;;;;;;;;;;;;;18.06;64.37;100615.19;5036415;28;1930;-43
2021/12/09 07:34:30;;;;;;;;;;;;;;;18.08;63.96;100608.75;5036804;28;1856;-43
2021/12/09 07:37:02;;;;;;;;;;;;;;;18.08;64.29;100611.44;5041226;28;1941;-42
2021/12/09 07:39:31;;;;;;;;;;;;;;;18.02;64.61;100616.44;5051766;28;1619;-43
2021/12/09 07:42:04;;;;;;;;;;;;;;;18.01;64.98;100618.28;5042436;28;1968;-42
2021/12/09 07:44:32;;;;;;;;;;;;;;;17.99;64.70;100614.06;5052120;28;1917;-42
2021/12/09 07:47:02;;;;;;;;;;;;;;;17.97;64.98;100613.34;5047764;28;1967;-42
2021/12/09 07:49:29;;;;;;;;;;;;;;;18.01;65.22;100623.63;5044807;28;1892;-42
2021/12/09 07:51:57;;;;;;;;;;;;;;;18.03;64.55;100636.88;5039905;28;1631;-42
2021/12/09 07:54:24;;;;;;;;;;;;;;;17.95;64.97;100645.56;5046617;28;1632;-42
2021/12/09 07:56:54;;;;;;;;;;;;;;;18.07;64.72;100641.81;5051336;28;1774;-42
2021/12/09 07:59:28;;;;;;;;;;;;;;;18.13;65.08;100651.16;5046242;28;1819;-42
2021/12/09 08:02:00;;;;;;;;;;;;;;;18.13;64.84;100650.31;5046046;28;1898;-42
2021/12/09 08:04:35;;;;;;;;;;;;;;;18.11;65.05;100661.16;5033620;28;2132;-42
2021/12/09 08:07:05;;;;;;;;;;;;;;;18.11;65.35;100649.59;5019074;28;1910;-42
2021/12/09 08:09:32;;;;;;;;;;;;;;;18.13;65.09;100664.53;5028004;28;1912;-42
2021/12/09 08:14:44;;;;;;;;;;;;;;;18.19;64.85;100653.31;5024737;28;1830;-42
2021/12/09 08:20:18;;;;;;;;;;;;;;;18.20;64.91;100651.47;4950558;28;1726;-42
2021/12/09 08:22:46;;;;;;;;;;;;;;;18.28;64.74;100643.59;5011639;28;1678;-42
2021/12/09 08:25:17;;;;;;;;;;;;;;;18.20;65.03;100641.59;5029112;28;1472;-42
2021/12/09 08:27:45;;;;;;;;;;;;;;;18.29;64.51;100638.13;5029920;28;1991;-42
2021/12/09 08:30:21;;;;;;;;;;;;;;;18.33;64.86;100635.19;5019608;28;1657;-42
2021/12/09 08:32:49;;;;;;;;;;;;;;;18.35;64.74;100634.06;5025555;28;1896;-42
2021/12/09 08:35:19;;;;;;;;;;;;;;;18.60;64.08;100631.91;5020207;28;1776;-42
2021/12/09 08:37:46;;;;;;;;;;;;;;;18.61;63.56;100626.41;5015877;28;1835;-42
2021/12/09 08:40:23;;;;;;;;;;;;;;;18.71;63.47;100622.94;5026657;28;2045;-42
2021/12/09 08:42:52;;;;;;;;;;;;;;;18.64;63.99;100602.06;5016704;28;1914;-42
2021/12/09 08:45:36;;;;;;;;;;;;;;;18.55;63.92;100615.41;5027726;28;1622;-42
2021/12/09 08:48:03;;;;;;;;;;;;;;;18.62;63.63;100603.16;5032669;28;1985;-42
2021/12/09 08:50:33;;;;;;;;;;;;;;;18.18;62.94;100606.09;5016567;28;1516;-42
2021/12/09 08:53:00;;;;;;;;;;;;;;;17.93;61.61;100595.84;5018306;28;1489;-42
2021/12/09 08:55:35;;;;;;;;;;;;;;;17.74;57.43;100594.72;5015973;28;1588;-42
2021/12/09 08:58:02;;;;;;;;;;;;;;;17.63;60.28;100584.09;5011276;28;1541;-42
2021/12/09 09:00:32;;;;;;;;;;;;;;;17.63;58.19;100576.09;5015623;28;1702;-42
2021/12/09 09:03:00;;;;;;;;;;;;;;;17.63;59.64;100568.91;5022726;28;1835;-42
2021/12/09 09:05:27;;;;;;;;;;;;;;;17.65;58.45;100558.06;5042004;28;1139;-42
2021/12/09 09:07:54;;;;;;;;;;;;;;;17.60;58.14;100562.97;5045423;28;1950;-42
2021/12/09 09:10:29;;;;;;;;;;;;;;;17.46;57.84;100546.25;5043211;28;1791;-42
2021/12/09 09:12:58;;;;;;;;;;;;;;;17.58;57.06;100546.19;5040141;28;1739;-43
2021/12/09 09:15:26;;;;;;;;;;;;;;;17.57;56.29;100532.00;5040674;28;1604;-42
2021/12/09 09:17:54;;;;;;;;;;;;;;;17.58;56.16;100543.53;5040868;28;1631;-42
2021/12/09 09:20:23;;;;;;;;;;;;;;;17.55;55.97;100555.34;5042109;28;1773;-42
2021/12/09 09:22:51;;;;;;;;;;;;;;;17.65;55.36;100550.06;5039213;28;1016;-42
2021/12/09 09:25:29;;;;;;;;;;;;;;;17.67;55.01;100548.94;5039297;28;1811;-43
2021/12/09 09:27:58;;;;;;;;;;;;;;;17.78;53.24;100544.47;5039009;28;2038;-43
2021/12/09 09:30:27;;;;;;;;;;;;;;;18.41;52.74;100531.78;5042270;28;1805;-43
2021/12/09 09:32:58;;;;;;;;;;;;;;;18.59;53.44;100513.22;5034419;28;1674;-43
2021/12/09 09:35:24;;;;;;;;;;;;;;;18.74;53.89;100515.50;5029748;28;1686;-44
2021/12/09 09:37:51;;;;;;;;;;;;;;;18.76;53.75;100518.88;5039556;28;1825;-44
2021/12/09 09:40:27;;;;;;;;;;;;;;;18.87;54.21;100506.22;5039661;28;1154;-43
2021/12/09 09:45:36;;;;;;;;;;;;;;;18.85;55.41;100515.41;5029965;28;2470;-43
2021/12/09 09:48:08;;;;;;;;;;;;;;;18.87;55.40;100500.88;5039057;28;1910;-43
2021/12/09 09:50:37;;;;;;;;;;;;;;;18.76;56.40;100497.44;5042317;28;1786;-44
2021/12/09 09:53:06;;;;;;;;;;;;;;;18.73;56.58;100498.59;5036317;28;1657;-43
2021/12/09 09:55:41;;;;;;;;;;;;;;;18.73;56.57;100500.41;5052809;28;1087;-43
2021/12/09 09:58:11;;;;;;;;;;;;;;;18.83;56.95;100495.94;5040144;28;1575;-44
2021/12/09 10:00:55;;;;;;;;;;;;;;;18.76;57.08;100503.66;5031593;28;2043;-43
2021/12/09 10:03:29;;;;;;;;;;;;;;;18.58;58.89;100505.31;5031681;28;1786;-43
2021/12/09 10:05:59;;;;;;;;;;;;;;;18.56;58.82;100521.56;5024284;28;1770;-43
2021/12/09 10:08:39;;;;;;;;;;;;;;;18.61;59.88;100511.25;5030740;28;1969;-43
2021/12/09 10:11:07;;;;;;;;;;;;;;;18.42;60.58;100524.59;5032955;28;1883;-43
2021/12/09 10:13:34;;;;;;;;;;;;;;;18.40;60.04;100526.56;5006218;28;2021;-44
2021/12/09 10:16:04;;;;;;;;;;;;;;;18.44;59.56;100530.66;5033649;28;1718;-44
2021/12/09 10:18:39;;;;;;;;;;;;;;;18.62;58.49;100504.94;5033275;28;1680;-43
2021/12/09 10:21:12;;;;;;;;;;;;;;;18.58;59.24;100500.84;5036929;28;1543;-43
2021/12/09 10:23:59;;;;;;;;;;;;;;;18.91;57.83;100500.59;5026403;28;2096;-43
2021/12/09 10:26:29;;;;;;;;;;;;;;;18.94;58.24;100501.16;5037523;28;1065;-43
2021/12/09 10:29:06;;;;;;;;;;;;;;;18.85;58.83;100486.75;5048341;28;1906;-43
2021/12/09 10:31:47;;;;;;;;;;;;;;;18.98;58.20;100490.97;5049084;28;1651;-43
2021/12/09 10:34:26;;;;;;;;;;;;;;;18.86;58.97;100495.63;5040276;28;1564;-43
2021/12/09 10:37:11;;;;;;;;;;;;;;;18.91;58.98;100463.91;5045998;28;1722;-43
2021/12/09 10:39:43;;;;;;;;;;;;;;;18.75;58.90;100461.78;5050337;28;1586;-43
2021/12/09 10:42:13;;;;;;;;;;;;;;;18.85;59.61;100469.84;5051837;28;1805;-43
2021/12/09 10:44:43;;;;;;;;;;;;;;;18.85;59.19;100456.47;5038391;28;1233;-43
2021/12/09 10:47:35;;;;;;;;;;;;;;;19.01;58.91;100456.72;5050679;28;2025;-43
2021/12/09 10:50:10;;;;;;;;;;;;;;;18.95;59.12;100468.00;5034309;28;1882;-43
2021/12/09 10:52:50;;;;;;;;;;;;;;;18.91;59.35;100469.28;5045666;28;1072;-44
2021/12/09 10:55:19;;;;;;;;;;;;;;;18.90;59.20;100459.56;5049881;28;1011;-43
2021/12/09 10:58:07;;;;;;;;;;;;;;;18.87;59.61;100458.00;5048725;28;1920;-43
2021/12/09 11:00:39;;;;;;;;;;;;;;;18.81;59.46;100449.69;5044322;28;1638;-43
2021/12/09 11:03:23;;;;;;;;;;;;;;;18.68;59.27;100455.28;5050670;28;1499;-43
2021/12/09 11:05:55;;;;;;;;;;;;;;;18.83;60.14;100463.78;5050785;28;1630;-44
2021/12/09 11:08:40;;;;;;;;;;;;;;;18.76;59.38;100459.94;5043612;28;1902;-43
2021/12/09 11:11:15;;;;;;;;;;;;;;;18.77;60.28;100451.78;5041208;28;1586;-43
2021/12/09 11:13:47;;;;;;;;;;;;;;;18.87;59.23;100449.13;5048325;28;1834;-43
2021/12/09 11:16:26;;;;;;;;;;;;;;;18.81;59.16;100430.94;5046510;28;1890;-43
2021/12/09 11:18:57;;;;;;;;;;;;;;;18.76;60.43;100442.06;5042634;28;1831;-43
2021/12/09 11:21:41;;;;;;;;;;;;;;;18.87;59.55;100430.38;5043826;28;1768;-43
2021/12/09 11:24:23;;;;;;;;;;;;;;;18.76;59.55;100423.31;5041768;28;2241;-44
2021/12/09 11:26:58;;;;;;;;;;;;;;;18.74;59.91;100419.06;5034581;28;1124;-44
2021/12/09 11:29:28;;;;;;;;;;;;;;;18.73;59.52;100406.66;5047197;28;1906;-43
2021/12/09 11:32:00;;;;;;;;;;;;;;;18.72;60.50;100410.31;5038949;28;1949;-43
2021/12/09 11:34:34;;;;;;;;;;;;;;;18.66;60.63;100412.59;5040644;28;1892;-43
2021/12/09 11:37:10;;;;;;;;;;;;;;;18.52;61.19;100420.19;5031897;28;1512;-42
2021/12/09 11:39:39;;;;;;;;;;;;;;;18.51;61.35;100435.41;5053003;28;1488;-42
2021/12/09 11:42:32;;;;;;;;;;;;;;;18.65;60.26;100421.59;5044121;28;1813;-42
2021/12/09 11:44:59;;;;;;;;;;;;;;;18.59;61.32;100422.19;5049441;28;1676;-42
2021/12/09 11:47:26;;;;;;;;;;;;;;;18.49;61.35;100407.94;5045150;28;1651;-42
2021/12/09 11:49:56;;;;;;;;;;;;;;;18.53;60.91;100427.25;5052463;28;1981;-43
2021/12/09 11:52:29;;;;;;;;;;;;;;;18.59;60.99;100429.38;5037573;28;1801;-42
2021/12/09 11:55:05;;;;;;;;;;;;;;;18.50;61.42;100428.38;5036370;28;1642;-42
2021/12/09 11:57:40;;;;;;;;;;;;;;;18.56;60.96;100411.75;5037943;28;1618;-42
2021/12/09 12:11:56;;;;;;;;;;;;;;;18.39;61.98;100418.66;5032623;28;1535;-42
2021/12/09 12:14:39;;;;;;;;;;;;;;;18.43;61.87;100413.88;5020417;28;1964;-42
2021/12/09 12:17:14;;;;;;;;;;;;;;;18.32;62.00;100409.47;5024284;28;1943;-42
2021/12/09 12:20:07;;;;;;;;;;;;;;;18.38;61.38;100418.78;5020636;28;1938;-42
2021/12/09 12:23:12;;;;;;;;;;;;;;;18.38;62.06;100421.47;5018452;28;1638;-42
2021/12/09 12:28:59;;;;;;;;;;;;;;;18.21;59.54;100423.00;5007796;28;1984;-42
2021/12/09 12:35:15;;;;;;;;;;;;;;;18.49;59.35;100434.72;5016112;28;1714;-43
2021/12/09 12:38:01;;;;;;;;;;;;;;;18.46;60.21;100416.25;5020971;28;1244;-42
2021/12/09 12:40:47;;;;;;;;;;;;;;;18.46;59.72;100417.13;5027047;28;1162;-42
2021/12/09 12:43:27;;;;;;;;;;;;;;;18.52;60.28;100418.34;5028401;28;1850;-43
2021/12/09 12:46:10;;;;;;;;;;;;;;;18.51;59.83;100426.56;5013690;28;1920;-42
2021/12/09 12:49:07;;;;;;;;;;;;;;;18.65;59.71;100426.13;5024369;28;1975;-42
2021/12/09 12:51:42;;;;;;;;;;;;;;;18.57;60.34;100431.34;5027173;28;1733;-42
2021/12/09 12:54:25;;;;;;;;;;;;;;;18.55;60.46;100436.00;5017362;28;1490;-42
2021/12/09 12:56:56;;;;;;;;;;;;;;;18.64;60.37;100416.38;5028937;28;1897;-42
2021/12/09 12:59:30;;;;;;;;;;;;;;;18.63;60.58;100418.22;5017748;28;1500;-42
2021/12/09 13:05:38;;;;;;;;;;;;;;;18.66;60.79;100426.00;5010983;28;1753;-43
2021/12/09 13:11:06;;;;;;;;;;;;;;;18.61;61.02;100422.03;5001700;28;1687;-42
2021/12/09 13:13:40;;;;;;;;;;;;;;;18.57;60.95;100416.13;5017641;28;1668;-42
2021/12/09 13:16:12;;;;;;;;;;;;;;;18.58;61.13;100424.97;5026085;28;1826;-42
2021/12/09 13:21:45;;;;;;;;;;;;;;;18.73;60.13;100420.91;5002434;28;1625;-42
2021/12/09 13:24:43;;;;;;;;;;;;;;;18.78;59.97;100415.09;5023057;28;1969;-42
2021/12/09 13:27:47;;;;;;;;;;;;;;;18.69;60.27;100398.06;5007299;28;2212;-42
2021/12/09 13:33:41;;;;;;;;;;;;;;;18.56;58.24;100406.41;5016726;28;1721;-42
2021/12/09 13:47:25;;;;;;;;;;;;;;;18.74;60.30;100409.22;5022827;28;1533;-42
2021/12/09 13:49:59;;;;;;;;;;;;;;;18.50;61.61;100425.69;5023946;28;1911;-42
2021/12/09 13:55:45;;;;;;;;;;;;;;;18.58;62.25;100414.28;5025248;28;829;-41
2021/12/09 13:58:22;;;;;;;;;;;;;;;18.47;62.50;100418.78;5016640;28;1859;-41
2021/12/09 14:00:51;;;;;;;;;;;;;;;18.25;62.75;100429.78;5020484;28;1773;-41
2021/12/09 14:03:21;;;;;;;;;;;;;;;18.21;63.31;100429.19;5018776;28;1625;-41
2021/12/09 14:05:51;;;;;;;;;;;;;;;18.24;62.90;100417.34;5042626;28;1652;-42
2021/12/09 14:08:32;;;;;;;;;;;;;;;18.32;62.88;100420.19;5046119;28;1842;-43
2021/12/09 14:11:08;;;;;;;;;;;;;;;18.35;62.50;100413.72;5042787;28;1615;-42
2021/12/09 14:13:49;;;;;;;;;;;;;;;18.56;62.09;100426.97;5047449;28;1758;-42